sensor_id;sensor_type;location;lat;lon;timestamp;temperature;humidity
1351;DHT22;669;50.206;9.998;2024-03-08T00:00:15;1.50;1.00
1351;DHT22;669;50.206;9.998;2024-03-08T00:02:47;1.40;1.00
1351;DHT22;669;50.206;9.998;2024-03-08T00:05:17;1.40;1.00
1351;DHT22;669;50.206;9.998;2024-03-08T00:07:46;1.30;1.00
1351;DHT22;669;50.206;9.998;2024-03-08T00:10:14;1.30;1.00
1351;DHT22;669;50.206;9.998;2024-03-08T00:12:44;1.30;1.00
1351;DHT22;669;50.206;9.998;2024-03-08T00:15:17;1.30;1.00
1351;DHT22;669;50.206;9.998;2024-03-08T00:17:46;1.30;1.00
1351;DHT22;669;50.206;9.998;2024-03-08T00:20:15;1.30;1.00
1351;DHT22;669;50.206;9.998;2024-03-08T00:22:45;1.20;1.00
1351;DHT22;669;50.206;9.998;2024-03-08T00:25:13;1.20;1.00
1351;DHT22;669;50.206;9.998;2024-03-08T00:27:41;1.20;1.00
1351;DHT22;669;50.206;9.998;2024-03-08T00:30:10;1.10;1.00
1351;DHT22;669;50.206;9.998;2024-03-08T00:32:42;1.10;1.00
1351;DHT22;669;50.206;9.998;2024-03-08T00:35:10;1.10;1.00
1351;DHT22;669;50.206;9.998;2024-03-08T00:37:39;1.10;1.00
1351;DHT22;669;50.206;9.998;2024-03-08T00:40:09;1.00;1.00
1351;DHT22;669;50.206;9.998;2024-03-08T00:42:37;1.00;1.00
1351;DHT22;669;50.206;9.998;2024-03-08T00:45:07;0.90;1.00
1351;DHT22;669;50.206;9.998;2024-03-08T00:47:37;0.90;1.00
1351;DHT22;669;50.206;9.998;2024-03-08T00:50:07;0.90;1.00
1351;DHT22;669;50.206;9.998;2024-03-08T00:52:36;0.80;1.00
1351;DHT22;669;50.206;9.998;2024-03-08T00:55:04;0.80;1.00
1351;DHT22;669;50.206;9.998;2024-03-08T00:57:32;0.80;1.00
1351;DHT22;669;50.206;9.998;2024-03-08T01:00:03;0.70;1.00
1351;DHT22;669;50.206;9.998;2024-03-08T01:02:32;0.70;1.00
1351;DHT22;669;50.206;9.998;2024-03-08T01:05:02;0.50;1.00
1351;DHT22;669;50.206;9.998;2024-03-08T01:07:34;0.50;1.00
1351;DHT22;669;50.206;9.998;2024-03-08T01:10:02;0.40;1.40
1351;DHT22;669;50.206;9.998;2024-03-08T01:12:30;0.40;1.00
1351;DHT22;669;50.206;9.998;2024-03-08T01:14:58;0.30;1.00
1351;DHT22;669;50.206;9.998;2024-03-08T01:17:26;0.30;1.00
1351;DHT22;669;50.206;9.998;2024-03-08T01:19:54;0.20;1.00
1351;DHT22;669;50.206;9.998;2024-03-08T01:22:22;0.10;1.00
1351;DHT22;669;50.206;9.998;2024-03-08T01:24:51;0.00;1.00
1351;DHT22;669;50.206;9.998;2024-03-08T01:27:20;-0.10;1.00
1351;DHT22;669;50.206;9.998;2024-03-08T01:29:48;-0.10;1.00
1351;DHT22;669;50.206;9.998;2024-03-08T01:32:16;-0.20;2.00
1351;DHT22;669;50.206;9.998;2024-03-08T01:34:46;-0.20;2.10
1351;DHT22;669;50.206;9.998;2024-03-08T01:37:14;-0.20;2.10
1351;DHT22;669;50.206;9.998;2024-03-08T01:39:42;-0.20;2.10
1351;DHT22;669;50.206;9.998;2024-03-08T01:42:11;-0.20;2.20
1351;DHT22;669;50.206;9.998;2024-03-08T01:44:42;-0.20;2.10
1351;DHT22;669;50.206;9.998;2024-03-08T01:47:10;-0.30;2.20
1351;DHT22;669;50.206;9.998;2024-03-08T01:49:39;-0.30;2.40
1351;DHT22;669;50.206;9.998;2024-03-08T01:52:07;-0.30;2.00
1351;DHT22;669;50.206;9.998;2024-03-08T01:54:35;-0.30;2.00
1351;DHT22;669;50.206;9.998;2024-03-08T01:57:04;-0.30;2.00
1351;DHT22;669;50.206;9.998;2024-03-08T01:59:34;-0.40;1.90
1351;DHT22;669;50.206;9.998;2024-03-08T02:02:02;-0.40;2.40
1351;DHT22;669;50.206;9.998;2024-03-08T02:04:30;-0.40;2.80
1351;DHT22;669;50.206;9.998;2024-03-08T02:06:58;-0.50;2.90
1351;DHT22;669;50.206;9.998;2024-03-08T02:09:27;-0.40;3.00
1351;DHT22;669;50.206;9.998;2024-03-08T02:11:56;-0.50;2.80
1351;DHT22;669;50.206;9.998;2024-03-08T02:14:25;-0.50;3.10
1351;DHT22;669;50.206;9.998;2024-03-08T02:16:54;-0.50;3.20
1351;DHT22;669;50.206;9.998;2024-03-08T02:19:24;-0.50;2.50
1351;DHT22;669;50.206;9.998;2024-03-08T02:21:54;-0.60;2.70
1351;DHT22;669;50.206;9.998;2024-03-08T02:24:22;-0.60;3.00
1351;DHT22;669;50.206;9.998;2024-03-08T02:26:50;-0.60;3.30
1351;DHT22;669;50.206;9.998;2024-03-08T02:29:18;-0.60;3.10
1351;DHT22;669;50.206;9.998;2024-03-08T02:31:47;-0.60;2.30
1351;DHT22;669;50.206;9.998;2024-03-08T02:34:15;-0.70;3.30
1351;DHT22;669;50.206;9.998;2024-03-08T02:36:43;-0.60;3.10
1351;DHT22;669;50.206;9.998;2024-03-08T02:39:12;-0.70;3.00
1351;DHT22;669;50.206;9.998;2024-03-08T02:41:40;-0.70;2.90
1351;DHT22;669;50.206;9.998;2024-03-08T02:44:09;-0.60;3.50
1351;DHT22;669;50.206;9.998;2024-03-08T02:46:38;-0.70;3.70
1351;DHT22;669;50.206;9.998;2024-03-08T02:49:06;-0.70;3.50
1351;DHT22;669;50.206;9.998;2024-03-08T02:51:35;-0.70;2.80
1351;DHT22;669;50.206;9.998;2024-03-08T02:54:03;-0.80;2.80
1351;DHT22;669;50.206;9.998;2024-03-08T02:56:33;-0.80;3.50
1351;DHT22;669;50.206;9.998;2024-03-08T02:59:02;-0.90;4.00
1351;DHT22;669;50.206;9.998;2024-03-08T03:01:30;-0.80;4.00
1351;DHT22;669;50.206;9.998;2024-03-08T03:03:58;-0.80;2.90
1351;DHT22;669;50.206;9.998;2024-03-08T03:06:27;-0.90;2.90
1351;DHT22;669;50.206;9.998;2024-03-08T03:08:54;-0.90;4.30
1351;DHT22;669;50.206;9.998;2024-03-08T03:11:24;-0.90;3.30
1351;DHT22;669;50.206;9.998;2024-03-08T03:13:53;-1.00;3.60
1351;DHT22;669;50.206;9.998;2024-03-08T03:16:22;-1.00;3.60
1351;DHT22;669;50.206;9.998;2024-03-08T03:18:51;-1.00;3.30
1351;DHT22;669;50.206;9.998;2024-03-08T03:21:19;-1.10;3.30
1351;DHT22;669;50.206;9.998;2024-03-08T03:23:48;-1.10;3.50
1351;DHT22;669;50.206;9.998;2024-03-08T03:26:16;-1.10;3.70
1351;DHT22;669;50.206;9.998;2024-03-08T03:28:44;-1.10;3.70
1351;DHT22;669;50.206;9.998;2024-03-08T03:31:13;-1.10;4.60
1351;DHT22;669;50.206;9.998;2024-03-08T03:33:41;-1.10;4.90
1351;DHT22;669;50.206;9.998;2024-03-08T03:36:10;-1.00;4.70
1351;DHT22;669;50.206;9.998;2024-03-08T03:38:38;-1.00;4.60
1351;DHT22;669;50.206;9.998;2024-03-08T03:41:06;-1.00;4.70
1351;DHT22;669;50.206;9.998;2024-03-08T03:43:37;-1.00;4.90
1351;DHT22;669;50.206;9.998;2024-03-08T03:46:06;-1.00;4.70
1351;DHT22;669;50.206;9.998;2024-03-08T03:48:36;-1.00;4.60
1351;DHT22;669;50.206;9.998;2024-03-08T03:51:04;-0.90;4.70
1351;DHT22;669;50.206;9.998;2024-03-08T03:53:32;-1.00;4.90
1351;DHT22;669;50.206;9.998;2024-03-08T03:56:00;-1.00;5.60
1351;DHT22;669;50.206;9.998;2024-03-08T03:58:28;-1.00;5.60
1351;DHT22;669;50.206;9.998;2024-03-08T04:00:56;-0.90;5.50
1351;DHT22;669;50.206;9.998;2024-03-08T04:03:24;-0.90;5.70
1351;DHT22;669;50.206;9.998;2024-03-08T04:05:53;-0.90;5.60
1351;DHT22;669;50.206;9.998;2024-03-08T04:08:21;-0.80;6.00
1351;DHT22;669;50.206;9.998;2024-03-08T04:10:50;-0.80;6.00
1351;DHT22;669;50.206;9.998;2024-03-08T04:13:19;-0.70;6.60
1351;DHT22;669;50.206;9.998;2024-03-08T04:15:47;-0.60;6.70
1351;DHT22;669;50.206;9.998;2024-03-08T04:18:16;-0.50;6.60
1351;DHT22;669;50.206;9.998;2024-03-08T04:20:45;-0.40;6.40
1351;DHT22;669;50.206;9.998;2024-03-08T04:23:14;-0.30;6.50
1351;DHT22;669;50.206;9.998;2024-03-08T04:25:44;-0.30;6.00
1351;DHT22;669;50.206;9.998;2024-03-08T04:28:13;-0.30;6.20
1351;DHT22;669;50.206;9.998;2024-03-08T04:30:41;-0.20;5.70
1351;DHT22;669;50.206;9.998;2024-03-08T04:33:10;-0.20;5.30
1351;DHT22;669;50.206;9.998;2024-03-08T04:35:38;-0.20;5.20
1351;DHT22;669;50.206;9.998;2024-03-08T04:38:06;-0.20;5.10
1351;DHT22;669;50.206;9.998;2024-03-08T04:40:35;-0.20;4.90
1351;DHT22;669;50.206;9.998;2024-03-08T04:43:03;-0.20;5.20
1351;DHT22;669;50.206;9.998;2024-03-08T04:45:31;-0.20;5.20
1351;DHT22;669;50.206;9.998;2024-03-08T04:48:00;-0.20;5.10
1351;DHT22;669;50.206;9.998;2024-03-08T04:50:28;-0.20;5.40
1351;DHT22;669;50.206;9.998;2024-03-08T04:52:57;-0.20;5.40
1351;DHT22;669;50.206;9.998;2024-03-08T04:55:24;-0.20;5.40
1351;DHT22;669;50.206;9.998;2024-03-08T04:57:54;-0.20;5.50
1351;DHT22;669;50.206;9.998;2024-03-08T05:00:22;-0.20;5.50
1351;DHT22;669;50.206;9.998;2024-03-08T05:02:50;-0.20;5.60
1351;DHT22;669;50.206;9.998;2024-03-08T05:05:20;-0.20;5.70
1351;DHT22;669;50.206;9.998;2024-03-08T05:07:49;-0.20;5.50
1351;DHT22;669;50.206;9.998;2024-03-08T05:10:17;-0.20;5.50
1351;DHT22;669;50.206;9.998;2024-03-08T05:12:45;-0.20;5.40
1351;DHT22;669;50.206;9.998;2024-03-08T05:15:15;-0.20;5.30
1351;DHT22;669;50.206;9.998;2024-03-08T05:17:43;-0.20;5.40
1351;DHT22;669;50.206;9.998;2024-03-08T05:20:11;-0.20;5.10
1351;DHT22;669;50.206;9.998;2024-03-08T05:22:40;-0.20;4.40
1351;DHT22;669;50.206;9.998;2024-03-08T05:25:08;-0.40;4.50
1351;DHT22;669;50.206;9.998;2024-03-08T05:27:37;-0.40;5.10
1351;DHT22;669;50.206;9.998;2024-03-08T05:30:05;-0.40;5.40
1351;DHT22;669;50.206;9.998;2024-03-08T05:32:36;-0.40;5.70
1351;DHT22;669;50.206;9.998;2024-03-08T05:35:04;-0.40;5.40
1351;DHT22;669;50.206;9.998;2024-03-08T05:37:34;-0.50;5.90
1351;DHT22;669;50.206;9.998;2024-03-08T05:40:02;-0.40;6.00
1351;DHT22;669;50.206;9.998;2024-03-08T05:42:41;-0.30;5.70
1351;DHT22;669;50.206;9.998;2024-03-08T05:45:10;-0.40;5.30
1351;DHT22;669;50.206;9.998;2024-03-08T05:47:40;-0.40;5.80
1351;DHT22;669;50.206;9.998;2024-03-08T05:50:09;-0.30;5.40
1351;DHT22;669;50.206;9.998;2024-03-08T05:52:38;-0.40;5.50
1351;DHT22;669;50.206;9.998;2024-03-08T05:55:07;-0.40;5.60
1351;DHT22;669;50.206;9.998;2024-03-08T05:57:37;-0.30;5.60
1351;DHT22;669;50.206;9.998;2024-03-08T06:00:07;-0.40;4.30
1351;DHT22;669;50.206;9.998;2024-03-08T06:02:38;-0.40;5.00
1351;DHT22;669;50.206;9.998;2024-03-08T06:05:10;-0.40;4.90
1351;DHT22;669;50.206;9.998;2024-03-08T06:07:38;-0.40;4.80
1351;DHT22;669;50.206;9.998;2024-03-08T06:10:08;-0.50;4.90
1351;DHT22;669;50.206;9.998;2024-03-08T06:12:39;-0.40;6.40
1351;DHT22;669;50.206;9.998;2024-03-08T06:15:09;-0.30;6.10
1351;DHT22;669;50.206;9.998;2024-03-08T06:17:41;-0.10;6.00
1351;DHT22;669;50.206;9.998;2024-03-08T06:20:11;0.20;5.50
1351;DHT22;669;50.206;9.998;2024-03-08T06:22:40;0.40;5.00
1351;DHT22;669;50.206;9.998;2024-03-08T06:25:08;0.70;4.50
1351;DHT22;669;50.206;9.998;2024-03-08T06:27:38;0.90;4.40
1351;DHT22;669;50.206;9.998;2024-03-08T06:30:07;1.20;3.60
1351;DHT22;669;50.206;9.998;2024-03-08T06:32:36;1.50;3.10
1351;DHT22;669;50.206;9.998;2024-03-08T06:35:05;1.70;1.80
1351;DHT22;669;50.206;9.998;2024-03-08T06:37:35;2.00;1.10
1351;DHT22;669;50.206;9.998;2024-03-08T06:40:03;2.20;1.00
1351;DHT22;669;50.206;9.998;2024-03-08T06:42:31;2.40;1.00
1351;DHT22;669;50.206;9.998;2024-03-08T06:45:02;2.60;1.00
1351;DHT22;669;50.206;9.998;2024-03-08T06:47:32;2.90;1.00
1351;DHT22;669;50.206;9.998;2024-03-08T06:50:00;3.10;1.00
1351;DHT22;669;50.206;9.998;2024-03-08T06:52:28;3.40;1.00
1351;DHT22;669;50.206;9.998;2024-03-08T06:54:58;3.60;1.00
1351;DHT22;669;50.206;9.998;2024-03-08T06:57:28;3.90;1.00
1351;DHT22;669;50.206;9.998;2024-03-08T06:59:56;4.20;1.00
1351;DHT22;669;50.206;9.998;2024-03-08T07:02:24;4.40;1.00
1351;DHT22;669;50.206;9.998;2024-03-08T07:04:52;4.60;1.00
1351;DHT22;669;50.206;9.998;2024-03-08T07:07:21;4.90;1.00
1351;DHT22;669;50.206;9.998;2024-03-08T07:09:49;5.00;1.00
1351;DHT22;669;50.206;9.998;2024-03-08T07:12:18;5.10;1.00
1351;DHT22;669;50.206;9.998;2024-03-08T07:14:47;5.30;1.00
1351;DHT22;669;50.206;9.998;2024-03-08T07:17:15;5.40;1.00
1351;DHT22;669;50.206;9.998;2024-03-08T07:19:43;5.60;1.00
1351;DHT22;669;50.206;9.998;2024-03-08T07:22:11;5.80;1.00
1351;DHT22;669;50.206;9.998;2024-03-08T07:24:40;6.10;1.00
1351;DHT22;669;50.206;9.998;2024-03-08T07:27:24;6.30;1.00
1351;DHT22;669;50.206;9.998;2024-03-08T07:29:52;6.50;1.00
1351;DHT22;669;50.206;9.998;2024-03-08T07:32:34;6.70;1.00
1351;DHT22;669;50.206;9.998;2024-03-08T07:35:02;6.80;1.00
1351;DHT22;669;50.206;9.998;2024-03-08T07:37:30;7.10;1.00
1351;DHT22;669;50.206;9.998;2024-03-08T07:39:59;7.00;1.00
1351;DHT22;669;50.206;9.998;2024-03-08T07:42:28;7.20;1.00
1351;DHT22;669;50.206;9.998;2024-03-08T07:44:56;7.30;1.00
1351;DHT22;669;50.206;9.998;2024-03-08T07:47:24;7.40;1.00
1351;DHT22;669;50.206;9.998;2024-03-08T07:49:53;7.70;1.00
1351;DHT22;669;50.206;9.998;2024-03-08T07:52:22;7.60;1.00
1351;DHT22;669;50.206;9.998;2024-03-08T07:54:50;7.70;1.00
1351;DHT22;669;50.206;9.998;2024-03-08T07:57:18;7.60;1.00
1351;DHT22;669;50.206;9.998;2024-03-08T07:59:48;7.70;1.00
1351;DHT22;669;50.206;9.998;2024-03-08T08:02:16;7.90;1.00
1351;DHT22;669;50.206;9.998;2024-03-08T08:04:45;7.80;1.00
1351;DHT22;669;50.206;9.998;2024-03-08T08:07:13;8.00;1.00
1351;DHT22;669;50.206;9.998;2024-03-08T08:09:41;8.20;1.00
1351;DHT22;669;50.206;9.998;2024-03-08T08:12:09;8.10;1.00
1351;DHT22;669;50.206;9.998;2024-03-08T08:14:38;8.20;1.00
1351;DHT22;669;50.206;9.998;2024-03-08T08:17:09;8.40;1.00
1351;DHT22;669;50.206;9.998;2024-03-08T08:19:37;8.50;1.00
1351;DHT22;669;50.206;9.998;2024-03-08T08:22:05;8.60;1.00
1351;DHT22;669;50.206;9.998;2024-03-08T08:24:35;8.50;1.00
1351;DHT22;669;50.206;9.998;2024-03-08T08:27:04;8.60;1.00
1351;DHT22;669;50.206;9.998;2024-03-08T08:29:33;9.00;1.00
1351;DHT22;669;50.206;9.998;2024-03-08T08:32:02;9.40;1.00
1351;DHT22;669;50.206;9.998;2024-03-08T08:34:32;9.70;1.00
1351;DHT22;669;50.206;9.998;2024-03-08T08:37:00;9.40;1.00
1351;DHT22;669;50.206;9.998;2024-03-08T08:39:28;9.40;1.00
1351;DHT22;669;50.206;9.998;2024-03-08T08:41:56;9.30;1.00
1351;DHT22;669;50.206;9.998;2024-03-08T08:44:24;9.20;1.00
1351;DHT22;669;50.206;9.998;2024-03-08T08:46:54;9.30;1.00
1351;DHT22;669;50.206;9.998;2024-03-08T08:49:33;9.70;1.00
1351;DHT22;669;50.206;9.998;2024-03-08T08:52:01;9.80;1.00
1351;DHT22;669;50.206;9.998;2024-03-08T08:54:41;9.60;1.00
1351;DHT22;669;50.206;9.998;2024-03-08T08:57:15;9.50;1.00
1351;DHT22;669;50.206;9.998;2024-03-08T08:59:43;9.20;1.00
1351;DHT22;669;50.206;9.998;2024-03-08T09:02:12;8.90;1.00
1351;DHT22;669;50.206;9.998;2024-03-08T09:04:45;9.10;1.00
1351;DHT22;669;50.206;9.998;2024-03-08T09:07:14;9.10;1.00
1351;DHT22;669;50.206;9.998;2024-03-08T09:09:43;9.30;1.00
1351;DHT22;669;50.206;9.998;2024-03-08T09:12:11;9.10;1.00
1351;DHT22;669;50.206;9.998;2024-03-08T09:14:40;9.20;1.00
1351;DHT22;669;50.206;9.998;2024-03-08T09:17:08;9.30;1.00
1351;DHT22;669;50.206;9.998;2024-03-08T09:19:36;9.30;1.00
1351;DHT22;669;50.206;9.998;2024-03-08T09:22:06;9.80;1.00
1351;DHT22;669;50.206;9.998;2024-03-08T09:24:34;10.20;1.00
1351;DHT22;669;50.206;9.998;2024-03-08T09:27:02;10.00;1.00
1351;DHT22;669;50.206;9.998;2024-03-08T09:29:30;10.00;1.00
1351;DHT22;669;50.206;9.998;2024-03-08T09:31:58;10.10;1.00
1351;DHT22;669;50.206;9.998;2024-03-08T09:34:26;10.50;1.00
1351;DHT22;669;50.206;9.998;2024-03-08T09:37:05;10.70;1.00
1351;DHT22;669;50.206;9.998;2024-03-08T09:39:33;11.10;1.00
1351;DHT22;669;50.206;9.998;2024-03-08T09:42:01;11.30;1.00
1351;DHT22;669;50.206;9.998;2024-03-08T09:44:30;11.00;1.00
1351;DHT22;669;50.206;9.998;2024-03-08T09:46:59;10.80;1.00
1351;DHT22;669;50.206;9.998;2024-03-08T09:49:28;10.20;1.00
1351;DHT22;669;50.206;9.998;2024-03-08T09:51:57;10.30;1.00
1351;DHT22;669;50.206;9.998;2024-03-08T09:54:27;10.50;1.00
1351;DHT22;669;50.206;9.998;2024-03-08T09:56:55;10.70;1.00
1351;DHT22;669;50.206;9.998;2024-03-08T09:59:23;10.10;1.00
1351;DHT22;669;50.206;9.998;2024-03-08T10:02:15;10.40;1.00
1351;DHT22;669;50.206;9.998;2024-03-08T10:04:44;10.80;1.00
1351;DHT22;669;50.206;9.998;2024-03-08T10:07:14;11.00;1.00
1351;DHT22;669;50.206;9.998;2024-03-08T10:09:43;11.10;1.00
1351;DHT22;669;50.206;9.998;2024-03-08T10:12:17;11.30;1.00
1351;DHT22;669;50.206;9.998;2024-03-08T10:14:46;11.20;1.00
1351;DHT22;669;50.206;9.998;2024-03-08T10:17:14;10.70;1.00
1351;DHT22;669;50.206;9.998;2024-03-08T10:19:49;10.70;1.00
1351;DHT22;669;50.206;9.998;2024-03-08T10:22:18;11.10;1.00
1351;DHT22;669;50.206;9.998;2024-03-08T10:24:48;11.50;1.00
1351;DHT22;669;50.206;9.998;2024-03-08T10:27:17;11.50;1.00
1351;DHT22;669;50.206;9.998;2024-03-08T10:29:47;11.60;1.00
1351;DHT22;669;50.206;9.998;2024-03-08T10:32:15;11.00;1.00
1351;DHT22;669;50.206;9.998;2024-03-08T10:34:43;11.10;1.00
1351;DHT22;669;50.206;9.998;2024-03-08T10:37:15;11.00;1.00
1351;DHT22;669;50.206;9.998;2024-03-08T10:39:52;11.30;1.00
1351;DHT22;669;50.206;9.998;2024-03-08T10:42:29;11.50;1.00
1351;DHT22;669;50.206;9.998;2024-03-08T10:45:06;11.60;1.00
1351;DHT22;669;50.206;9.998;2024-03-08T10:47:41;11.20;1.00
1351;DHT22;669;50.206;9.998;2024-03-08T10:50:17;11.00;1.00
1351;DHT22;669;50.206;9.998;2024-03-08T10:52:49;10.90;1.00
1351;DHT22;669;50.206;9.998;2024-03-08T10:55:19;10.50;1.00
1351;DHT22;669;50.206;9.998;2024-03-08T10:57:48;10.40;1.00
1351;DHT22;669;50.206;9.998;2024-03-08T11:00:17;10.50;1.00
1351;DHT22;669;50.206;9.998;2024-03-08T11:02:54;11.20;1.00
1351;DHT22;669;50.206;9.998;2024-03-08T11:05:32;11.80;1.00
1351;DHT22;669;50.206;9.998;2024-03-08T11:08:17;11.90;1.00
1351;DHT22;669;50.206;9.998;2024-03-08T11:10:48;11.30;1.00
1351;DHT22;669;50.206;9.998;2024-03-08T11:13:34;11.20;1.00
1351;DHT22;669;50.206;9.998;2024-03-08T11:16:03;10.70;1.00
1351;DHT22;669;50.206;9.998;2024-03-08T11:18:36;11.30;1.00
1351;DHT22;669;50.206;9.998;2024-03-08T11:21:08;11.70;1.00
1351;DHT22;669;50.206;9.998;2024-03-08T11:23:39;11.70;1.00
1351;DHT22;669;50.206;9.998;2024-03-08T11:26:19;11.60;1.00
1351;DHT22;669;50.206;9.998;2024-03-08T11:28:47;12.00;1.00
1351;DHT22;669;50.206;9.998;2024-03-08T11:31:25;12.40;1.00
1351;DHT22;669;50.206;9.998;2024-03-08T11:33:55;12.60;1.00
1351;DHT22;669;50.206;9.998;2024-03-08T11:36:24;12.90;1.00
1351;DHT22;669;50.206;9.998;2024-03-08T11:38:53;13.10;1.00
1351;DHT22;669;50.206;9.998;2024-03-08T11:41:24;12.80;1.00
1351;DHT22;669;50.206;9.998;2024-03-08T11:44:02;12.80;1.00
1351;DHT22;669;50.206;9.998;2024-03-08T11:46:33;12.90;1.00
1351;DHT22;669;50.206;9.998;2024-03-08T11:49:01;13.00;1.00
1351;DHT22;669;50.206;9.998;2024-03-08T11:51:30;13.40;1.00
1351;DHT22;669;50.206;9.998;2024-03-08T11:53:59;13.40;1.00
1351;DHT22;669;50.206;9.998;2024-03-08T11:56:29;13.00;1.00
1351;DHT22;669;50.206;9.998;2024-03-08T11:58:57;12.70;1.00
1351;DHT22;669;50.206;9.998;2024-03-08T12:01:25;12.80;1.00
1351;DHT22;669;50.206;9.998;2024-03-08T12:03:55;12.80;1.00
1351;DHT22;669;50.206;9.998;2024-03-08T12:06:26;12.40;1.00
1351;DHT22;669;50.206;9.998;2024-03-08T12:08:54;12.60;1.00
1351;DHT22;669;50.206;9.998;2024-03-08T12:11:22;12.70;1.00
1351;DHT22;669;50.206;9.998;2024-03-08T12:13:53;12.90;1.00
1351;DHT22;669;50.206;9.998;2024-03-08T12:16:23;12.80;1.00
1351;DHT22;669;50.206;9.998;2024-03-08T12:18:52;12.60;1.00
1351;DHT22;669;50.206;9.998;2024-03-08T12:21:20;12.60;1.00
1351;DHT22;669;50.206;9.998;2024-03-08T12:24:03;12.90;1.00
1351;DHT22;669;50.206;9.998;2024-03-08T12:26:31;12.80;1.00
1351;DHT22;669;50.206;9.998;2024-03-08T12:29:20;13.00;1.00
1351;DHT22;669;50.206;9.998;2024-03-08T12:31:52;13.10;1.00
1351;DHT22;669;50.206;9.998;2024-03-08T12:34:21;13.20;1.00
1351;DHT22;669;50.206;9.998;2024-03-08T12:36:51;13.30;1.00
1351;DHT22;669;50.206;9.998;2024-03-08T12:39:21;13.00;1.00
1351;DHT22;669;50.206;9.998;2024-03-08T12:41:54;12.90;1.00
1351;DHT22;669;50.206;9.998;2024-03-08T12:44:25;12.80;1.00
1351;DHT22;669;50.206;9.998;2024-03-08T12:46:55;13.00;1.00
1351;DHT22;669;50.206;9.998;2024-03-08T12:49:26;13.10;1.00
1351;DHT22;669;50.206;9.998;2024-03-08T12:51:54;13.00;1.00
1351;DHT22;669;50.206;9.998;2024-03-08T12:54:22;13.20;1.00
1351;DHT22;669;50.206;9.998;2024-03-08T12:56:52;12.80;1.00
1351;DHT22;669;50.206;9.998;2024-03-08T12:59:21;12.50;1.00
1351;DHT22;669;50.206;9.998;2024-03-08T13:01:52;12.70;1.00
1351;DHT22;669;50.206;9.998;2024-03-08T13:04:21;12.80;1.00
1351;DHT22;669;50.206;9.998;2024-03-08T13:06:49;12.90;1.00
1351;DHT22;669;50.206;9.998;2024-03-08T13:09:21;12.50;1.00
1351;DHT22;669;50.206;9.998;2024-03-08T13:11:50;12.40;1.00
1351;DHT22;669;50.206;9.998;2024-03-08T13:14:20;12.60;1.00
1351;DHT22;669;50.206;9.998;2024-03-08T13:16:48;12.80;1.00
1351;DHT22;669;50.206;9.998;2024-03-08T13:19:19;13.00;1.00
1351;DHT22;669;50.206;9.998;2024-03-08T13:21:49;13.20;1.00
1351;DHT22;669;50.206;9.998;2024-03-08T13:24:17;13.40;1.00
1351;DHT22;669;50.206;9.998;2024-03-08T13:26:46;13.20;1.00
1351;DHT22;669;50.206;9.998;2024-03-08T13:29:14;13.20;1.00
1351;DHT22;669;50.206;9.998;2024-03-08T13:31:42;13.00;1.00
1351;DHT22;669;50.206;9.998;2024-03-08T13:34:10;12.90;1.00
1351;DHT22;669;50.206;9.998;2024-03-08T13:36:40;12.80;1.00
1351;DHT22;669;50.206;9.998;2024-03-08T13:39:11;13.10;1.00
1351;DHT22;669;50.206;9.998;2024-03-08T13:41:42;13.20;1.00
1351;DHT22;669;50.206;9.998;2024-03-08T13:44:11;13.10;1.00
1351;DHT22;669;50.206;9.998;2024-03-08T13:46:39;13.00;1.00
1351;DHT22;669;50.206;9.998;2024-03-08T13:49:08;12.90;1.00
1351;DHT22;669;50.206;9.998;2024-03-08T13:51:37;13.10;1.00
1351;DHT22;669;50.206;9.998;2024-03-08T13:54:07;12.70;1.00
1351;DHT22;669;50.206;9.998;2024-03-08T13:56:36;12.40;1.00
1351;DHT22;669;50.206;9.998;2024-03-08T13:59:04;12.50;1.00
1351;DHT22;669;50.206;9.998;2024-03-08T14:01:32;12.60;1.00
1351;DHT22;669;50.206;9.998;2024-03-08T14:04:03;12.30;1.00
1351;DHT22;669;50.206;9.998;2024-03-08T14:06:31;12.10;1.00
1351;DHT22;669;50.206;9.998;2024-03-08T14:08:59;12.50;1.00
1351;DHT22;669;50.206;9.998;2024-03-08T14:11:29;12.30;1.00
1351;DHT22;669;50.206;9.998;2024-03-08T14:13:57;12.20;1.00
1351;DHT22;669;50.206;9.998;2024-03-08T14:16:25;12.30;1.00
1351;DHT22;669;50.206;9.998;2024-03-08T14:18:53;12.20;1.00
1351;DHT22;669;50.206;9.998;2024-03-08T14:21:22;12.30;1.00
1351;DHT22;669;50.206;9.998;2024-03-08T14:23:50;12.50;1.00
1351;DHT22;669;50.206;9.998;2024-03-08T14:26:19;12.70;1.00
1351;DHT22;669;50.206;9.998;2024-03-08T14:28:49;12.70;1.00
1351;DHT22;669;50.206;9.998;2024-03-08T14:31:18;12.50;1.00
1351;DHT22;669;50.206;9.998;2024-03-08T14:33:46;12.70;1.00
1351;DHT22;669;50.206;9.998;2024-03-08T14:36:16;12.70;1.00
1351;DHT22;669;50.206;9.998;2024-03-08T14:38:46;12.40;1.00
1351;DHT22;669;50.206;9.998;2024-03-08T14:41:14;12.50;1.00
1351;DHT22;669;50.206;9.998;2024-03-08T14:43:43;12.60;1.00
1351;DHT22;669;50.206;9.998;2024-03-08T14:46:13;12.10;1.00
1351;DHT22;669;50.206;9.998;2024-03-08T14:48:44;12.00;1.00
1351;DHT22;669;50.206;9.998;2024-03-08T14:51:16;12.10;1.00
1351;DHT22;669;50.206;9.998;2024-03-08T14:53:46;12.20;1.00
1351;DHT22;669;50.206;9.998;2024-03-08T14:56:14;12.10;1.00
1351;DHT22;669;50.206;9.998;2024-03-08T14:58:43;12.00;1.00
1351;DHT22;669;50.206;9.998;2024-03-08T15:01:14;11.80;1.00
1351;DHT22;669;50.206;9.998;2024-03-08T15:03:42;11.90;1.00
1351;DHT22;669;50.206;9.998;2024-03-08T15:06:10;11.80;1.00
1351;DHT22;669;50.206;9.998;2024-03-08T15:08:39;11.90;1.00
1351;DHT22;669;50.206;9.998;2024-03-08T15:11:08;12.00;1.00
1351;DHT22;669;50.206;9.998;2024-03-08T15:13:36;11.70;1.00
1351;DHT22;669;50.206;9.998;2024-03-08T15:16:08;11.60;1.00
1351;DHT22;669;50.206;9.998;2024-03-08T15:18:43;11.80;1.00
1351;DHT22;669;50.206;9.998;2024-03-08T15:21:18;11.70;1.00
1351;DHT22;669;50.206;9.998;2024-03-08T15:23:47;11.60;1.00
1351;DHT22;669;50.206;9.998;2024-03-08T15:26:19;11.60;1.00
1351;DHT22;669;50.206;9.998;2024-03-08T15:28:47;11.50;1.00
1351;DHT22;669;50.206;9.998;2024-03-08T15:31:18;11.30;1.00
1351;DHT22;669;50.206;9.998;2024-03-08T15:33:49;11.20;1.00
1351;DHT22;669;50.206;9.998;2024-03-08T15:36:19;11.20;1.00
1351;DHT22;669;50.206;9.998;2024-03-08T15:38:48;11.00;1.00
1351;DHT22;669;50.206;9.998;2024-03-08T15:41:19;11.10;1.00
1351;DHT22;669;50.206;9.998;2024-03-08T15:43:48;10.80;1.00
1351;DHT22;669;50.206;9.998;2024-03-08T15:46:16;10.90;1.00
1351;DHT22;669;50.206;9.998;2024-03-08T15:48:50;10.80;1.00
1351;DHT22;669;50.206;9.998;2024-03-08T15:51:19;10.80;1.00
1351;DHT22;669;50.206;9.998;2024-03-08T15:53:47;10.80;1.00
1351;DHT22;669;50.206;9.998;2024-03-08T15:56:20;10.60;1.00
1351;DHT22;669;50.206;9.998;2024-03-08T15:58:49;10.50;1.00
1351;DHT22;669;50.206;9.998;2024-03-08T16:01:18;10.50;1.00
1351;DHT22;669;50.206;9.998;2024-03-08T16:03:47;10.40;1.00
1351;DHT22;669;50.206;9.998;2024-03-08T16:06:18;10.40;1.00
1351;DHT22;669;50.206;9.998;2024-03-08T16:08:48;10.30;1.00
1351;DHT22;669;50.206;9.998;2024-03-08T16:11:16;10.20;1.00
1351;DHT22;669;50.206;9.998;2024-03-08T16:13:45;10.20;1.00
1351;DHT22;669;50.206;9.998;2024-03-08T16:16:13;10.10;1.00
1351;DHT22;669;50.206;9.998;2024-03-08T16:18:41;10.00;1.00
1351;DHT22;669;50.206;9.998;2024-03-08T16:21:09;10.00;1.00
1351;DHT22;669;50.206;9.998;2024-03-08T16:23:40;9.90;1.00
1351;DHT22;669;50.206;9.998;2024-03-08T16:26:09;9.70;1.00
1351;DHT22;669;50.206;9.998;2024-03-08T16:28:37;9.70;1.00
1351;DHT22;669;50.206;9.998;2024-03-08T16:31:10;9.60;1.00
1351;DHT22;669;50.206;9.998;2024-03-08T16:33:41;9.60;1.00
1351;DHT22;669;50.206;9.998;2024-03-08T16:36:11;9.50;1.00
1351;DHT22;669;50.206;9.998;2024-03-08T16:38:42;9.40;1.00
1351;DHT22;669;50.206;9.998;2024-03-08T16:41:12;9.30;1.00
1351;DHT22;669;50.206;9.998;2024-03-08T16:43:40;9.20;1.00
1351;DHT22;669;50.206;9.998;2024-03-08T16:46:10;9.20;1.00
1351;DHT22;669;50.206;9.998;2024-03-08T16:48:38;9.20;1.00
1351;DHT22;669;50.206;9.998;2024-03-08T16:51:06;9.10;1.00
1351;DHT22;669;50.206;9.998;2024-03-08T16:53:35;9.00;1.00